Time;durP1;ratioP1;P1;durP2;ratioP2;P2;SDS_P1;SDS_P2;PMS_P1;PMS_P2;Temp;Humidity;BMP_temperature;BMP_pressure;BME280_temperature;BME280_humidity;BME280_pressure;Samples;Min_cycle;Max_cycle;Signal;HPM_P1;HPM_P2
2023/04/28 00:01:14;;;;;;;12.17;5.13;;;;;;;11.97;100.00;99905.03;5071766;28;20246;-69
2023/04/28 00:03:40;;;;;;;5.67;4.47;;;;;;;11.95;100.00;99910.25;5078094;28;20226;-72
2023/04/28 00:06:05;;;;;;;6.50;4.47;;;;;;;11.97;100.00;99906.78;5083693;28;20211;-68
2023/04/28 00:08:31;;;;;;;6.87;4.53;;;;;;;11.84;100.00;99894.63;5077697;28;20258;-71
2023/04/28 00:10:56;;;;;;;9.33;3.73;;;;;;;11.57;100.00;99886.88;5062667;28;20216;-71
2023/04/28 00:13:22;;;;;;;8.07;3.83;;;;;;;11.52;100.00;99894.88;5070644;28;20720;-71
2023/04/28 00:15:48;;;;;;;8.70;3.77;;;;;;;11.57;100.00;99892.03;5072001;28;20172;-72
2023/04/28 00:18:14;;;;;;;5.10;3.20;;;;;;;11.50;100.00;99885.59;5071907;28;20269;-72
2023/04/28 00:20:39;;;;;;;5.27;3.50;;;;;;;11.46;100.00;99884.97;5066443;28;20294;-71
2023/04/28 00:23:04;;;;;;;7.17;3.97;;;;;;;11.54;100.00;99882.75;5083993;28;20188;-72
2023/04/28 00:25:30;;;;;;;8.00;3.87;;;;;;;11.55;100.00;99883.59;5071471;28;20650;-72
2023/04/28 00:27:55;;;;;;;6.70;3.87;;;;;;;11.52;100.00;99882.00;5071820;28;20176;-72
2023/04/28 00:30:21;;;;;;;6.93;3.90;;;;;;;11.47;100.00;99868.59;5064165;28;20183;-72
2023/04/28 00:32:46;;;;;;;7.97;4.23;;;;;;;11.55;100.00;99874.09;5070645;28;20212;-72
2023/04/28 00:35:11;;;;;;;8.63;3.80;;;;;;;11.60;100.00;99866.09;5071562;28;20181;-72
2023/04/28 00:37:37;;;;;;;6.07;3.80;;;;;;;11.55;100.00;99866.38;5083242;28;20177;-71
2023/04/28 00:40:02;;;;;;;4.73;3.47;;;;;;;11.54;100.00;99864.72;5069746;28;20169;-69
2023/04/28 00:42:29;;;;;;;8.53;3.70;;;;;;;11.51;100.00;99846.06;5067456;28;20224;-72
2023/04/28 00:44:54;;;;;;;6.13;4.00;;;;;;;11.40;100.00;99847.56;5081332;28;20193;-71
2023/04/28 00:47:19;;;;;;;12.50;4.70;;;;;;;11.30;100.00;99838.75;5070320;28;20181;-71
2023/04/28 00:49:46;;;;;;;6.67;4.33;;;;;;;11.27;100.00;99841.50;5071729;28;20241;-70
2023/04/28 00:52:12;;;;;;;5.77;3.53;;;;;;;11.28;100.00;99848.31;5073912;28;20240;-70
2023/04/28 00:54:37;;;;;;;5.67;3.43;;;;;;;11.34;99.43;99844.50;5066207;28;20177;-69
2023/04/28 00:57:03;;;;;;;7.83;3.70;;;;;;;11.25;99.37;99838.19;5084947;28;20249;-71
2023/04/28 00:59:29;;;;;;;9.13;4.30;;;;;;;11.34;100.00;99840.22;5071672;28;20662;-71
2023/04/28 01:01:55;;;;;;;6.57;3.87;;;;;;;11.22;100.00;99839.19;5062691;28;20239;-69
2023/04/28 01:04:21;;;;;;;7.47;3.90;;;;;;;11.04;100.00;99832.59;5072464;28;20177;-70
2023/04/28 01:06:48;;;;;;;10.63;4.40;;;;;;;10.83;100.00;99820.13;5070833;28;20236;-70
2023/04/28 01:09:13;;;;;;;7.40;3.67;;;;;;;10.42;100.00;99824.22;5069740;28;20220;-71
2023/04/28 01:11:39;;;;;;;5.90;3.43;;;;;;;10.12;100.00;99821.66;5073470;28;20285;-70
2023/04/28 01:14:04;;;;;;;5.93;4.47;;;;;;;10.10;100.00;99820.94;5074259;28;20191;-69
2023/04/28 01:16:31;;;;;;;10.80;4.70;;;;;;;10.18;100.00;99826.44;5069427;28;20378;-71
2023/04/28 01:18:57;;;;;;;6.17;3.87;;;;;;;10.30;100.00;99822.34;5071632;28;20200;-71
2023/04/28 01:21:40;;;;;;;7.53;4.17;;;;;;;10.10;100.00;99823.50;5062643;28;20657;-71
2023/04/28 01:24:06;;;;;;;8.40;4.03;;;;;;;10.04;100.00;99819.53;5073672;28;20272;-71
2023/04/28 01:26:31;;;;;;;6.03;4.33;;;;;;;9.93;100.00;99820.13;5068518;28;20187;-71
2023/04/28 01:28:56;;;;;;;9.87;4.73;;;;;;;9.91;100.00;99811.69;5071197;28;20628;-71
2023/04/28 01:31:21;;;;;;;8.33;4.70;;;;;;;9.90;100.00;99798.91;5071010;28;20224;-70
2023/04/28 01:33:47;;;;;;;9.33;4.63;;;;;;;9.86;100.00;99798.28;5079657;28;20188;-72
2023/04/28 01:36:12;;;;;;;9.00;4.77;;;;;;;9.93;100.00;99798.75;5073997;28;20200;-72
2023/04/28 01:38:37;;;;;;;6.87;4.30;;;;;;;10.03;100.00;99805.00;5075013;28;20176;-72
2023/04/28 01:41:02;;;;;;;10.50;5.03;;;;;;;10.12;100.00;99804.50;5082789;28;20226;-71
2023/04/28 01:43:28;;;;;;;7.53;4.47;;;;;;;10.24;100.00;99809.84;5091478;28;20644;-71
2023/04/28 01:45:53;;;;;;;7.00;4.67;;;;;;;10.26;100.00;99811.41;5074018;28;20201;-70
2023/04/28 01:48:18;;;;;;;6.03;5.43;;;;;;;10.28;100.00;99809.59;5074700;28;20212;-71
2023/04/28 01:50:44;;;;;;;10.73;6.37;;;;;;;10.34;100.00;99814.38;5069531;28;20228;-71
2023/04/28 01:53:09;;;;;;;7.67;6.20;;;;;;;10.31;100.00;99813.72;5072586;28;20639;-71
2023/04/28 01:55:34;;;;;;;7.13;6.30;;;;;;;10.20;100.00;99811.75;5072862;28;20177;-70
2023/04/28 01:58:00;;;;;;;9.37;6.87;;;;;;;10.08;100.00;99803.00;5074417;28;20249;-70
2023/04/28 02:00:26;;;;;;;11.13;6.50;;;;;;;10.17;100.00;99807.63;5066975;28;20220;-70
2023/04/28 02:02:51;;;;;;;8.10;6.83;;;;;;;10.11;100.00;99807.97;5080213;28;20204;-70
2023/04/28 02:05:16;;;;;;;8.57;6.50;;;;;;;10.14;100.00;99807.78;5068507;28;20272;-70
2023/04/28 02:07:42;;;;;;;11.77;6.90;;;;;;;10.21;100.00;99807.44;5074511;28;20181;-69
2023/04/28 02:10:08;;;;;;;7.63;6.83;;;;;;;10.25;100.00;99814.88;5064282;28;20262;-70
2023/04/28 02:12:33;;;;;;;7.93;7.13;;;;;;;10.36;100.00;99818.56;5072853;28;20200;-70
2023/04/28 02:14:59;;;;;;;11.63;7.60;;;;;;;10.38;100.00;99819.34;5073782;28;20234;-70
2023/04/28 02:17:25;;;;;;;11.37;7.40;;;;;;;10.38;100.00;99811.63;5074176;28;20192;-70
2023/04/28 02:19:55;;;;;;;13.60;7.07;;;;;;;10.30;100.00;99804.34;5072540;28;20195;-70
2023/04/28 02:22:21;;;;;;;9.30;6.50;;;;;;;10.25;100.00;99796.91;5060115;28;20255;-70
2023/04/28 02:24:46;;;;;;;9.47;6.60;;;;;;;10.27;100.00;99794.22;5086068;28;20681;-70
2023/04/28 02:27:12;;;;;;;8.40;6.50;;;;;;;10.32;100.00;99790.50;5074039;28;20669;-70
2023/04/28 02:29:37;;;;;;;10.60;7.13;;;;;;;10.37;100.00;99791.97;5074115;28;20185;-70
2023/04/28 02:32:03;;;;;;;10.40;6.43;;;;;;;10.46;100.00;99781.19;5078849;28;20228;-70
2023/04/28 02:34:28;;;;;;;10.60;7.00;;;;;;;10.46;100.00;99788.88;5073158;28;20181;-69
2023/04/28 02:36:53;;;;;;;11.20;6.50;;;;;;;10.40;100.00;99781.53;5073770;28;20249;-70
2023/04/28 02:39:20;;;;;;;10.83;7.40;;;;;;;10.37;100.00;99786.84;5072428;28;20185;-71
2023/04/28 02:41:46;;;;;;;9.23;6.00;;;;;;;10.41;100.00;99786.59;5076874;28;20219;-71
2023/04/28 02:44:11;;;;;;;11.87;7.17;;;;;;;10.50;100.00;99785.22;5074196;28;20187;-71
2023/04/28 02:46:37;;;;;;;8.27;7.00;;;;;;;10.54;100.00;99776.38;5073240;28;20252;-71
2023/04/28 02:49:02;;;;;;;10.60;6.70;;;;;;;10.62;100.00;99771.63;5073044;28;20538;-70
2023/04/28 02:51:27;;;;;;;9.30;6.90;;;;;;;10.61;100.00;99771.72;5074463;28;20231;-71
2023/04/28 02:53:53;;;;;;;10.00;7.00;;;;;;;10.64;100.00;99777.50;5071870;28;20639;-71
2023/04/28 02:56:18;;;;;;;8.20;7.40;;;;;;;10.65;100.00;99773.19;5082380;28;20530;-71
2023/04/28 02:58:43;;;;;;;10.57;7.50;;;;;;;10.61;100.00;99769.16;5075790;28;20180;-71
2023/04/28 03:01:08;;;;;;;10.80;7.37;;;;;;;10.45;100.00;99764.09;5060948;28;20227;-72
2023/04/28 03:03:34;;;;;;;11.27;7.07;;;;;;;10.40;100.00;99756.63;5071262;28;20164;-72
2023/04/28 03:05:59;;;;;;;8.50;7.03;;;;;;;10.41;100.00;99752.34;5073003;28;20208;-72
2023/04/28 03:08:25;;;;;;;14.03;7.97;;;;;;;10.41;100.00;99747.19;5084990;28;20227;-72
2023/04/28 03:10:50;;;;;;;8.10;7.27;;;;;;;10.32;100.00;99744.22;5069253;28;20275;-73
2023/04/28 03:13:15;;;;;;;11.13;7.13;;;;;;;10.38;100.00;99748.22;5073705;28;20209;-71
2023/04/28 03:15:40;;;;;;;9.03;7.47;;;;;;;10.38;100.00;99747.38;5064239;28;20325;-71
2023/04/28 03:18:06;;;;;;;11.83;8.10;;;;;;;10.48;100.00;99749.31;5071249;28;20185;-71
2023/04/28 03:20:31;;;;;;;9.13;7.50;;;;;;;10.52;100.00;99749.09;5066262;28;20228;-72
2023/04/28 03:22:56;;;;;;;8.97;6.80;;;;;;;10.53;100.00;99743.88;5071559;28;20538;-72
2023/04/28 03:25:22;;;;;;;8.87;6.30;;;;;;;10.56;100.00;99743.69;5071075;28;20272;-72
2023/04/28 03:27:47;;;;;;;9.13;6.83;;;;;;;10.66;100.00;99738.81;5072695;28;20240;-72
2023/04/28 03:30:12;;;;;;;10.50;6.43;;;;;;;10.64;100.00;99733.78;5042907;28;20177;-72
2023/04/28 03:32:38;;;;;;;9.80;6.43;;;;;;;10.72;100.00;99727.34;5070583;28;20227;-72
2023/04/28 03:35:03;;;;;;;9.87;6.60;;;;;;;10.71;100.00;99731.66;5070872;28;20181;-72
2023/04/28 03:37:28;;;;;;;8.37;7.03;;;;;;;10.73;100.00;99739.25;5072709;28;20268;-72
2023/04/28 03:39:54;;;;;;;8.87;6.50;;;;;;;10.84;100.00;99728.31;5072330;28;20276;-72
2023/04/28 03:42:19;;;;;;;12.57;6.50;;;;;;;10.76;100.00;99724.47;5062297;28;20234;-72
2023/04/28 03:44:44;;;;;;;11.10;6.47;;;;;;;10.65;100.00;99725.16;5059989;28;20176;-72
2023/04/28 03:47:10;;;;;;;11.70;6.13;;;;;;;10.61;100.00;99718.50;5072447;28;20585;-73
2023/04/28 03:49:35;;;;;;;10.33;6.83;;;;;;;10.43;100.00;99710.19;5070835;28;20280;-73
2023/04/28 03:52:00;;;;;;;11.90;6.97;;;;;;;10.43;100.00;99699.91;5077160;28;20319;-72
2023/04/28 03:54:25;;;;;;;11.00;6.53;;;;;;;10.24;100.00;99704.44;5083128;28;20523;-70
2023/04/28 03:56:51;;;;;;;8.97;6.57;;;;;;;10.04;100.00;99714.16;5080692;28;20214;-70
2023/04/28 03:59:16;;;;;;;16.53;7.40;;;;;;;9.92;100.00;99707.16;5071010;28;20208;-71
2023/04/28 04:01:42;;;;;;;14.33;7.60;;;;;;;9.92;100.00;99707.97;5074787;28;20365;-71
2023/04/28 04:04:07;;;;;;;16.70;7.53;;;;;;;9.96;100.00;99701.78;5081531;28;20267;-71
2023/04/28 04:06:32;;;;;;;15.83;7.33;;;;;;;9.96;100.00;99695.78;5073820;28;20196;-71
2023/04/28 04:08:58;;;;;;;16.67;7.73;;;;;;;9.92;100.00;99696.88;5072044;28;20236;-72
2023/04/28 04:11:23;;;;;;;17.07;7.43;;;;;;;9.84;100.00;99698.16;5072408;28;20230;-72
2023/04/28 04:13:48;;;;;;;14.77;7.50;;;;;;;9.77;100.00;99696.03;5077109;28;20278;-71
2023/04/28 04:16:14;;;;;;;11.43;7.37;;;;;;;9.70;100.00;99685.31;5071028;28;20189;-71
2023/04/28 04:18:40;;;;;;;12.47;7.13;;;;;;;9.66;100.00;99686.38;5070241;28;20184;-71
2023/04/28 04:21:05;;;;;;;10.73;7.43;;;;;;;9.71;100.00;99688.69;5067964;28;20645;-70
2023/04/28 04:23:30;;;;;;;12.57;7.20;;;;;;;9.69;100.00;99683.66;5087546;28;20188;-71
2023/04/28 04:25:56;;;;;;;12.00;7.90;;;;;;;9.63;100.00;99687.38;5087393;28;20630;-71
2023/04/28 04:28:21;;;;;;;11.13;8.27;;;;;;;9.61;100.00;99683.25;5073387;28;20259;-71
2023/04/28 04:30:46;;;;;;;14.87;7.53;;;;;;;9.72;100.00;99683.44;5074939;28;20215;-70
2023/04/28 04:33:11;;;;;;;8.40;7.57;;;;;;;9.74;100.00;99680.81;5069859;28;20284;-71
2023/04/28 04:35:37;;;;;;;10.93;7.17;;;;;;;9.75;100.00;99683.28;5071273;28;20548;-71
2023/04/28 04:38:02;;;;;;;8.97;7.77;;;;;;;9.59;100.00;99685.06;5071580;28;20179;-69
2023/04/28 04:40:27;;;;;;;10.17;8.07;;;;;;;9.55;100.00;99681.88;5064936;28;20223;-71
2023/04/28 04:42:53;;;;;;;10.73;8.30;;;;;;;9.27;100.00;99691.13;5083747;28;20168;-70
2023/04/28 04:45:18;;;;;;;10.70;9.33;;;;;;;9.19;100.00;99700.97;5071057;28;20665;-69
2023/04/28 04:47:43;;;;;;;12.47;8.43;;;;;;;9.32;100.00;99698.56;5075643;28;20369;-69
2023/04/28 04:50:10;;;;;;;11.83;8.73;;;;;;;9.35;100.00;99695.81;5061806;28;20256;-69
2023/04/28 04:52:36;;;;;;;12.93;8.80;;;;;;;9.32;100.00;99701.13;5086061;28;20240;-70
2023/04/28 04:55:01;;;;;;;13.30;9.00;;;;;;;9.29;100.00;99704.69;5071023;28;20189;-70
2023/04/28 04:57:26;;;;;;;11.00;8.83;;;;;;;9.26;100.00;99707.41;5084729;28;20338;-70
2023/04/28 04:59:52;;;;;;;11.10;9.27;;;;;;;9.27;100.00;99709.06;5071186;28;20310;-68
2023/04/28 05:02:17;;;;;;;13.57;9.10;;;;;;;9.33;100.00;99713.06;5061127;28;20231;-70
2023/04/28 05:04:42;;;;;;;13.13;8.73;;;;;;;9.30;100.00;99718.34;5069710;28;20181;-69
2023/04/28 05:07:07;;;;;;;9.47;8.53;;;;;;;9.19;100.00;99716.38;5071822;28;20658;-69
2023/04/28 05:09:33;;;;;;;11.27;9.33;;;;;;;9.08;100.00;99711.00;5075414;28;20228;-69
2023/04/28 05:11:58;;;;;;;12.00;9.30;;;;;;;9.09;100.00;99721.19;5079460;28;20280;-69
2023/04/28 05:14:23;;;;;;;11.73;9.70;;;;;;;9.05;100.00;99714.56;5076197;28;20310;-69
2023/04/28 05:16:49;;;;;;;13.90;10.60;;;;;;;8.90;100.00;99707.72;5074791;28;20581;-70
2023/04/28 05:19:14;;;;;;;12.13;9.00;;;;;;;9.03;100.00;99724.91;5074331;28;20188;-68
2023/04/28 05:21:40;;;;;;;14.07;10.90;;;;;;;9.06;100.00;99705.94;5077539;28;20673;-68
2023/04/28 05:24:05;;;;;;;12.93;10.93;;;;;;;9.05;100.00;99714.56;5077986;28;20571;-69
2023/04/28 05:26:31;;;;;;;14.20;11.07;;;;;;;9.18;100.00;99720.69;5074613;28;20219;-69
2023/04/28 05:28:56;;;;;;;14.47;10.83;;;;;;;9.20;100.00;99720.59;5075095;28;20594;-69
2023/04/28 05:31:21;;;;;;;11.50;10.40;;;;;;;9.02;100.00;99723.25;5074958;28;20301;-69
2023/04/28 05:33:47;;;;;;;14.93;11.03;;;;;;;9.12;100.00;99727.91;5080186;28;20176;-69
2023/04/28 05:36:12;;;;;;;19.07;10.30;;;;;;;9.04;100.00;99721.44;5074618;28;20267;-69
2023/04/28 05:38:37;;;;;;;15.77;11.60;;;;;;;8.99;100.00;99723.44;5074892;28;20227;-70
2023/04/28 05:41:03;;;;;;;17.43;11.07;;;;;;;9.10;100.00;99715.13;5072229;28;20223;-70
2023/04/28 05:43:28;;;;;;;17.80;12.83;;;;;;;9.07;100.00;99719.59;5082708;28;20192;-69
2023/04/28 05:45:53;;;;;;;13.40;11.43;;;;;;;9.06;100.00;99717.97;5073933;28;20260;-69
2023/04/28 05:48:19;;;;;;;13.57;11.70;;;;;;;9.07;100.00;99709.34;5074590;28;20184;-70
2023/04/28 05:50:44;;;;;;;12.93;10.77;;;;;;;8.93;100.00;99716.06;5069619;28;20223;-71
2023/04/28 05:53:10;;;;;;;16.87;12.40;;;;;;;9.07;100.00;99719.59;5073056;28;20203;-71
2023/04/28 05:55:35;;;;;;;14.63;12.03;;;;;;;9.16;100.00;99713.97;5077229;28;20271;-71
2023/04/28 05:58:02;;;;;;;13.37;12.00;;;;;;;9.06;100.00;99716.22;5082954;28;20173;-70
2023/04/28 06:00:27;;;;;;;18.07;12.67;;;;;;;9.11;100.00;99715.97;5066833;28;20227;-70
2023/04/28 06:02:54;;;;;;;17.77;12.77;;;;;;;9.24;100.00;99714.41;5086726;28;20180;-71
2023/04/28 06:05:20;;;;;;;19.00;12.53;;;;;;;9.15;100.00;99720.03;5074035;28;20397;-70
2023/04/28 06:07:45;;;;;;;17.10;15.30;;;;;;;9.21;100.00;99714.56;5074223;28;20268;-71
2023/04/28 06:10:10;;;;;;;15.13;12.60;;;;;;;9.26;100.00;99727.13;5064461;28;21037;-70
2023/04/28 06:12:36;;;;;;;14.77;13.30;;;;;;;9.07;100.00;99727.28;5088849;28;20204;-71
2023/04/28 06:15:01;;;;;;;15.97;13.80;;;;;;;8.99;100.00;99726.00;5073540;28;20635;-71
2023/04/28 06:17:29;;;;;;;14.77;13.27;;;;;;;9.00;100.00;99734.50;5074300;28;20551;-71
2023/04/28 06:19:54;;;;;;;16.03;13.10;;;;;;;8.85;100.00;99733.59;5073493;28;20184;-71
2023/04/28 06:22:19;;;;;;;14.53;13.03;;;;;;;8.98;100.00;99736.31;5079432;28;20222;-72
2023/04/28 06:24:45;;;;;;;13.97;12.57;;;;;;;8.96;100.00;99745.84;5073448;28;20286;-72
2023/04/28 06:27:10;;;;;;;17.83;14.13;;;;;;;8.94;100.00;99740.78;5073998;28;20539;-72
2023/04/28 06:29:36;;;;;;;15.50;13.70;;;;;;;8.86;100.00;99748.91;5072266;28;20314;-72
2023/04/28 06:32:01;;;;;;;16.57;14.13;;;;;;;9.01;100.00;99746.44;5061462;28;20228;-72
2023/04/28 06:34:27;;;;;;;19.83;14.37;;;;;;;8.97;100.00;99747.50;5069585;28;20177;-71
2023/04/28 06:36:54;;;;;;;19.63;13.97;;;;;;;9.19;100.00;99747.16;5073711;28;20196;-72
2023/04/28 06:39:20;;;;;;;18.57;15.40;;;;;;;9.01;100.00;99743.88;5072233;28;20266;-71
2023/04/28 06:41:46;;;;;;;14.57;13.07;;;;;;;8.97;100.00;99743.19;5065373;28;20275;-72
2023/04/28 06:44:12;;;;;;;15.17;13.47;;;;;;;9.06;100.00;99738.50;5071928;28;20655;-72
2023/04/28 06:46:37;;;;;;;23.73;14.90;;;;;;;9.19;100.00;99737.75;5072983;28;20185;-71
2023/04/28 06:49:02;;;;;;;21.20;15.80;;;;;;;9.25;100.00;99731.44;5072151;28;20192;-71
2023/04/28 06:51:27;;;;;;;20.60;15.73;;;;;;;9.34;100.00;99738.63;5073882;28;20604;-72
2023/04/28 06:53:53;;;;;;;17.50;15.63;;;;;;;9.45;100.00;99734.63;5070020;28;20179;-71
2023/04/28 06:56:18;;;;;;;17.20;15.20;;;;;;;9.30;100.00;99733.75;5073021;28;20188;-73
2023/04/28 06:58:44;;;;;;;18.47;14.90;;;;;;;9.34;100.00;99732.66;5072036;28;20208;-75
2023/04/28 07:01:09;;;;;;;24.20;15.57;;;;;;;9.34;100.00;99709.56;5047168;28;20274;-75
2023/04/28 07:03:34;;;;;;;19.97;15.53;;;;;;;9.44;100.00;99715.00;5065517;28;20182;-74
2023/04/28 07:06:00;;;;;;;25.97;16.37;;;;;;;9.51;100.00;99717.16;5072581;28;20261;-75
2023/04/28 07:08:25;;;;;;;29.87;15.50;;;;;;;9.47;100.00;99696.88;5071204;28;20231;-75
2023/04/28 07:10:51;;;;;;;20.33;15.50;;;;;;;9.68;100.00;99707.66;5071345;28;20244;-63
2023/04/28 07:13:16;;;;;;;21.93;15.87;;;;;;;9.91;100.00;99705.50;5065110;28;20585;-72
2023/04/28 07:15:41;;;;;;;20.70;15.03;;;;;;;9.83;100.00;99696.50;5071552;28;20233;-73
2023/04/28 07:18:06;;;;;;;17.70;13.07;;;;;;;10.00;100.00;99692.13;5077095;28;20187;-73
2023/04/28 07:20:32;;;;;;;26.53;16.37;;;;;;;9.98;100.00;99709.38;5073237;28;20681;-75
2023/04/28 07:22:57;;;;;;;21.33;15.00;;;;;;;9.96;100.00;99717.19;5075982;28;20211;-74
2023/04/28 07:25:22;;;;;;;15.50;14.00;;;;;;;9.99;100.00;99708.47;5074808;28;20260;-73
2023/04/28 07:27:49;;;;;;;19.67;14.83;;;;;;;10.04;100.00;99713.34;5082564;28;20176;-74
2023/04/28 07:30:14;;;;;;;22.40;14.10;;;;;;;10.18;100.00;99705.63;5040601;28;20640;-73
2023/04/28 07:32:39;;;;;;;17.47;13.10;;;;;;;9.92;100.00;99697.72;5068307;28;20291;-74
2023/04/28 07:35:05;;;;;;;17.93;12.60;;;;;;;9.75;100.00;99705.56;5072338;28;20263;-72
2023/04/28 07:37:30;;;;;;;15.40;13.37;;;;;;;9.76;100.00;99694.38;5072663;28;20181;-71
2023/04/28 07:39:56;;;;;;;14.77;12.80;;;;;;;9.79;100.00;99695.03;5070931;28;20264;-72
2023/04/28 07:42:21;;;;;;;19.50;13.03;;;;;;;9.58;100.00;99707.38;5060996;28;20216;-71
2023/04/28 07:44:46;;;;;;;18.23;14.03;;;;;;;9.58;100.00;99715.06;5072077;28;20627;-71
2023/04/28 07:47:12;;;;;;;15.30;13.77;;;;;;;9.58;100.00;99719.38;5072221;28;20206;-70
2023/04/28 07:49:37;;;;;;;18.20;14.40;;;;;;;9.68;100.00;99713.63;5072860;28;20216;-70
2023/04/28 07:52:03;;;;;;;17.57;14.90;;;;;;;9.68;100.00;99728.22;5063221;28;20223;-69
2023/04/28 07:54:28;;;;;;;18.60;15.63;;;;;;;9.63;100.00;99712.25;5071641;28;20229;-69
2023/04/28 07:56:55;;;;;;;17.87;14.87;;;;;;;9.48;100.00;99711.38;5070075;28;20196;-70
2023/04/28 07:59:20;;;;;;;16.77;14.43;;;;;;;9.53;100.00;99720.44;5071992;28;20639;-70
2023/04/28 08:01:45;;;;;;;18.17;14.80;;;;;;;9.72;100.00;99727.13;5071658;28;20222;-70
2023/04/28 08:04:11;;;;;;;20.10;14.83;;;;;;;9.68;100.00;99729.03;5089251;28;20525;-70
2023/04/28 08:06:37;;;;;;;16.57;14.67;;;;;;;9.95;100.00;99723.22;5070306;28;20200;-69
2023/04/28 08:09:04;;;;;;;16.50;14.87;;;;;;;10.24;100.00;99725.03;5069846;28;20625;-71
2023/04/28 08:11:30;;;;;;;14.83;13.43;;;;;;;10.25;100.00;99729.25;5060213;28;20306;-73
2023/04/28 08:14:00;;;;;;;15.13;13.57;;;;;;;10.32;100.00;99728.78;5075601;28;20263;-73
2023/04/28 08:16:26;;;;;;;17.97;16.07;;;;;;;10.40;100.00;99722.41;5071756;28;20183;-72
2023/04/28 08:18:51;;;;;;;17.23;15.27;;;;;;;10.29;100.00;99726.38;5067914;28;20181;-73
2023/04/28 08:21:16;;;;;;;17.23;15.50;;;;;;;10.37;100.00;99728.56;5070998;28;20216;-71
2023/04/28 08:23:42;;;;;;;13.97;12.67;;;;;;;10.37;100.00;99727.72;5068881;28;20628;-71
2023/04/28 08:26:07;;;;;;;14.40;12.90;;;;;;;10.56;100.00;99727.44;5071444;28;20181;-70
2023/04/28 08:28:32;;;;;;;14.87;13.47;;;;;;;10.64;100.00;99727.78;5071646;28;20172;-70
2023/04/28 08:30:58;;;;;;;15.53;13.53;;;;;;;10.91;100.00;99721.88;5068879;28;20220;-73
2023/04/28 08:33:23;;;;;;;15.43;13.53;;;;;;;11.16;100.00;99728.06;5079657;28;20565;-74
2023/04/28 08:35:49;;;;;;;14.03;12.57;;;;;;;11.40;100.00;99723.94;5066154;28;20188;-72
2023/04/28 08:38:16;;;;;;;16.20;13.30;;;;;;;11.34;100.00;99724.34;5071409;28;20651;-73
2023/04/28 08:40:42;;;;;;;15.50;13.47;;;;;;;11.28;100.00;99724.72;5063550;28;20314;-75
2023/04/28 08:43:09;;;;;;;14.17;12.73;;;;;;;11.45;100.00;99714.16;5074557;28;20193;-74
2023/04/28 08:45:41;;;;;;;14.40;12.90;;;;;;;11.63;100.00;99719.03;5074250;28;20553;-75
2023/04/28 08:48:21;;;;;;;14.80;13.30;;;;;;;11.82;100.00;99717.84;5069682;28;20203;-72
2023/04/28 08:50:51;;;;;;;15.67;13.73;;;;;;;12.08;100.00;99721.28;5063142;28;20743;-75
2023/04/28 08:53:24;;;;;;;16.77;13.90;;;;;;;12.31;100.00;99716.34;5081003;28;20247;-67
2023/04/28 08:55:53;;;;;;;15.27;13.67;;;;;;;12.79;100.00;99718.22;5070864;28;20215;-62
2023/04/28 08:58:19;;;;;;;15.30;13.70;;;;;;;12.71;100.00;99722.19;5071407;28;20187;-61
2023/04/28 09:00:44;;;;;;;15.70;14.07;;;;;;;12.70;100.00;99725.69;5066821;28;20223;-67
2023/04/28 09:03:09;;;;;;;17.10;14.37;;;;;;;12.65;100.00;99722.63;5081824;28;20183;-85
2023/04/28 09:05:35;;;;;;;14.30;12.90;;;;;;;12.82;100.00;99718.84;5070183;28;20192;-87
2023/04/28 09:08:01;;;;;;;14.90;13.03;;;;;;;13.10;100.00;99716.91;5079137;28;20245;-76
2023/04/28 09:10:27;;;;;;;15.50;12.90;;;;;;;13.52;100.00;99725.09;5062457;28;20243;-79
2023/04/28 09:12:54;;;;;;;14.93;13.33;;;;;;;13.29;100.00;99713.00;5070603;28;20196;-75
2023/04/28 09:15:33;;;;;;;14.80;13.30;;;;;;;13.53;100.00;99713.00;5070857;28;20237;-77
2023/04/28 09:17:59;;;;;;;13.77;11.80;;;;;;;13.74;100.00;99715.75;5069711;28;20722;-75
2023/04/28 09:20:26;;;;;;;15.07;13.57;;;;;;;13.61;100.00;99713.25;5062735;28;20626;-79
2023/04/28 09:22:53;;;;;;;14.77;13.30;;;;;;;13.28;100.00;99717.31;5083187;28;20173;-77
2023/04/28 09:25:20;;;;;;;14.40;13.00;;;;;;;13.29;100.00;99716.41;5071034;28;20191;-75
2023/04/28 09:27:45;;;;;;;14.50;13.07;;;;;;;13.54;100.00;99712.91;5070139;28;20944;-74
2023/04/28 09:30:11;;;;;;;13.90;12.60;;;;;;;13.59;100.00;99720.28;5060433;28;20193;-75
2023/04/28 09:32:36;;;;;;;16.17;13.47;;;;;;;13.54;100.00;99719.81;5068302;28;20181;-79
2023/04/28 09:35:03;;;;;;;16.17;12.87;;;;;;;13.46;100.00;99716.97;5078477;28;20188;-79
2023/04/28 09:37:30;;;;;;;14.40;12.90;;;;;;;13.82;100.00;99726.38;5069249;28;20572;-79
2023/04/28 09:39:56;;;;;;;13.93;12.57;;;;;;;13.98;100.00;99727.78;5062834;28;20178;-78
2023/04/28 09:42:41;;;;;;;14.47;12.97;;;;;;;13.93;100.00;99723.00;5054413;28;20220;-80
2023/04/28 09:45:08;;;;;;;14.90;13.30;;;;;;;13.84;100.00;99708.16;5076877;28;20188;-78
2023/04/28 09:47:36;;;;;;;14.40;13.10;;;;;;;14.11;100.00;99715.59;5070062;28;20173;-79
2023/04/28 09:50:03;;;;;;;13.70;12.50;;;;;;;13.99;100.00;99708.75;5070998;28;20181;-80
2023/04/28 09:52:29;;;;;;;17.13;14.13;;;;;;;14.25;100.00;99698.22;5073209;28;20713;-80
2023/04/28 09:54:55;;;;;;;16.00;14.40;;;;;;;14.00;100.00;99702.66;5075451;28;20181;-79
2023/04/28 09:57:22;;;;;;;15.80;12.63;;;;;;;13.97;100.00;99706.28;5087701;28;20520;-78
2023/04/28 09:59:49;;;;;;;15.47;14.07;;;;;;;13.80;100.00;99710.13;5074864;28;20185;-79
2023/04/28 10:02:16;;;;;;;15.27;13.73;;;;;;;13.97;100.00;99715.81;5063970;28;20575;-77
2023/04/28 10:04:45;;;;;;;15.73;14.10;;;;;;;14.22;100.00;99712.19;5074602;28;20188;-77
2023/04/28 10:07:13;;;;;;;15.40;14.00;;;;;;;14.15;100.00;99709.28;5074423;28;20228;-78
2023/04/28 10:09:42;;;;;;;16.50;14.47;;;;;;;14.24;100.00;99701.72;5070030;28;20599;-78
2023/04/28 10:12:08;;;;;;;15.07;13.53;;;;;;;14.17;100.00;99706.56;5079047;28;20220;-78
2023/04/28 10:14:35;;;;;;;14.40;12.27;;;;;;;14.36;100.00;99713.72;5074318;28;20518;-78
2023/04/28 10:17:02;;;;;;;21.63;14.10;;;;;;;14.35;100.00;99707.75;5074292;28;20191;-77
2023/04/28 10:19:27;;;;;;;16.80;15.07;;;;;;;14.01;100.00;99714.66;5073112;28;20520;-77
2023/04/28 10:22:34;;;;;;;15.47;13.97;;;;;;;13.66;100.00;99711.16;5084510;28;20218;-76
2023/04/28 10:25:05;;;;;;;19.73;14.60;;;;;;;13.72;100.00;99709.91;5073239;28;20208;-76
2023/04/28 10:27:31;;;;;;;16.47;14.67;;;;;;;13.81;100.00;99705.81;5072937;28;20661;-75
2023/04/28 10:30:20;;;;;;;17.43;15.23;;;;;;;13.88;100.00;99702.63;5091559;28;20172;-76
2023/04/28 10:32:46;;;;;;;15.60;13.73;;;;;;;14.27;100.00;99699.75;5065750;28;20217;-76
2023/04/28 10:35:39;;;;;;;15.77;14.27;;;;;;;14.77;100.00;99696.81;5081611;28;20262;-76
2023/04/28 10:38:12;;;;;;;15.50;14.10;;;;;;;15.12;100.00;99706.13;5072415;28;20521;-76
2023/04/28 10:40:46;;;;;;;15.47;13.67;;;;;;;15.42;100.00;99701.19;5065599;28;20908;-76
2023/04/28 10:43:30;;;;;;;15.10;13.53;;;;;;;15.42;100.00;99702.00;5084384;28;20185;-75
2023/04/28 10:46:02;;;;;;;14.13;12.80;;;;;;;15.04;100.00;99705.09;5072969;28;20203;-75
2023/04/28 10:48:35;;;;;;;14.10;12.80;;;;;;;15.19;100.00;99708.22;5072491;28;20309;-75
2023/04/28 10:51:06;;;;;;;14.73;13.23;;;;;;;14.83;100.00;99703.25;5071036;28;20294;-75
2023/04/28 10:53:41;;;;;;;14.40;13.00;;;;;;;15.07;100.00;99699.66;5072470;28;20213;-74
2023/04/28 10:56:06;;;;;;;14.77;13.27;;;;;;;14.67;100.00;99693.28;5068315;28;20264;-75
2023/04/28 10:58:32;;;;;;;15.57;14.17;;;;;;;14.28;100.00;99696.22;5077738;28;20520;-74
2023/04/28 11:01:17;;;;;;;15.10;13.70;;;;;;;14.95;100.00;99683.34;5051483;28;20239;-74
2023/04/28 11:03:46;;;;;;;14.60;12.97;;;;;;;15.52;100.00;99670.13;5078862;28;20198;-74
2023/04/28 11:06:33;;;;;;;13.83;12.60;;;;;;;16.02;100.00;99685.06;5070545;28;20245;-74
2023/04/28 11:09:30;;;;;;;13.17;11.67;;;;;;;15.86;100.00;99688.94;5073012;28;20228;-72
2023/04/28 11:11:58;;;;;;;13.33;10.77;;;;;;;16.18;100.00;99698.38;5063299;28;20293;-73
2023/04/28 11:14:23;;;;;;;12.27;10.93;;;;;;;15.78;100.00;99697.34;5073905;28;20576;-73